createdAt,value
2022-08-05T00:00:18.330Z,1.88
2022-08-05T00:02:51.696Z,3.03
2022-08-05T00:06:02.723Z,1.88
2022-08-05T00:08:32.710Z,1.88
2022-08-05T00:11:00.994Z,1.58
2022-08-05T00:13:38.238Z,1.60
2022-08-05T00:16:10.859Z,2.67
2022-08-05T00:18:42.163Z,1.70
2022-08-05T00:21:10.529Z,2.25
2022-08-05T00:23:45.658Z,2.90
2022-08-05T00:26:22.578Z,1.52
2022-08-05T00:28:51.374Z,1.85
2022-08-05T00:31:54.399Z,2.83
2022-08-05T00:34:53.219Z,2.35
2022-08-05T00:37:13.139Z,1.80
2022-08-05T00:39:44.461Z,1.73
2022-08-05T00:42:35.291Z,2.17
2022-08-05T00:45:08.721Z,4.05
2022-08-05T00:47:56.854Z,2.70
2022-08-05T00:50:28.273Z,2.85
2022-08-05T00:52:55.989Z,5.13
2022-08-05T00:55:42.636Z,2.75
2022-08-05T00:58:14.285Z,2.08
2022-08-05T01:00:42.423Z,2.03
2022-08-05T01:03:22.386Z,2.95
2022-08-05T01:05:51.214Z,2.20
2022-08-05T01:08:30.789Z,2.10
2022-08-05T01:11:13.636Z,3.05
2022-08-05T01:13:58.904Z,1.73
2022-08-05T01:16:33.941Z,1.77
2022-08-05T01:19:10.394Z,3.17
2022-08-05T01:22:07.976Z,1.73
2022-08-05T01:25:04.486Z,4.13
2022-08-05T01:27:57.439Z,1.92
2022-08-05T01:30:34.752Z,2.13
2022-08-05T01:33:08.204Z,2.20
2022-08-05T01:38:24.772Z,1.60
2022-08-05T01:40:58.581Z,2.67
2022-08-05T01:43:28.839Z,3.08
2022-08-05T01:45:58.543Z,4.63
2022-08-05T01:48:36.886Z,3.58
2022-08-05T01:51:12.396Z,6.20
2022-08-05T01:53:58.259Z,2.60
2022-08-05T01:58:13.784Z,2.85
2022-08-05T01:59:23.992Z,3.38
2022-08-05T02:01:57.651Z,2.47
2022-08-05T02:04:28.915Z,5.05
2022-08-05T02:06:59.038Z,4.90
2022-08-05T02:09:28.056Z,4.05
2022-08-05T02:12:10.112Z,4.85
2022-08-05T02:14:47.850Z,5.45
2022-08-05T02:18:28.258Z,5.68
2022-08-05T02:20:20.714Z,4.05
2022-08-05T02:22:57.932Z,2.70
2022-08-05T02:25:33.353Z,2.92
2022-08-05T02:28:08.666Z,2.88
2022-08-05T02:30:51.702Z,2.08
2022-08-05T02:33:24.492Z,4.50
2022-08-05T02:36:04.624Z,5.45
2022-08-05T02:38:35.461Z,3.05
2022-08-05T02:41:14.666Z,4.53
2022-08-05T02:44:02.882Z,5.00
2022-08-05T02:46:53.159Z,5.65
2022-08-05T02:49:26.533Z,4.93
2022-08-05T02:52:04.006Z,2.92
2022-08-05T02:54:37.103Z,5.03
2022-08-05T02:57:10.299Z,4.82
2022-08-05T02:59:56.156Z,4.88
2022-08-05T03:02:29.776Z,4.25
2022-08-05T03:04:58.885Z,4.88
2022-08-05T03:07:59.199Z,3.70
2022-08-05T03:10:21.991Z,3.35
2022-08-05T03:12:53.527Z,4.40
2022-08-05T03:15:21.635Z,3.03
2022-08-05T03:17:54.048Z,3.90
2022-08-05T03:20:23.641Z,5.57
2022-08-05T03:22:52.736Z,3.22
2022-08-05T03:25:33.308Z,6.78
2022-08-05T03:28:11.631Z,3.25
2022-08-05T03:30:42.414Z,6.10
2022-08-05T03:33:12.060Z,3.55
2022-08-05T03:35:41.681Z,2.88
2022-08-05T03:38:11.546Z,3.25
2022-08-05T03:40:41.150Z,4.85
2022-08-05T03:43:58.434Z,3.83
2022-08-05T03:46:01.426Z,3.10
2022-08-05T03:48:35.543Z,3.00
2022-08-05T03:52:39.253Z,3.65
2022-08-05T03:55:53.870Z,2.30
2022-08-05T03:56:54.056Z,2.95
2022-08-05T03:59:46.507Z,2.53
2022-08-05T04:02:37.834Z,2.92
2022-08-05T04:05:09.694Z,3.10
2022-08-05T04:07:58.295Z,4.38
2022-08-05T04:10:28.406Z,3.65
2022-08-05T04:13:00.083Z,2.70
2022-08-05T04:15:33.200Z,2.83
2022-08-05T04:18:07.294Z,3.70
2022-08-05T04:20:38.561Z,5.18
2022-08-05T04:23:12.549Z,2.83
2022-08-05T04:26:00.606Z,3.95
2022-08-05T04:28:30.799Z,2.75
2022-08-05T04:31:00.810Z,5.15
2022-08-05T04:33:54.591Z,3.08
2022-08-05T04:36:45.812Z,4.03
2022-08-05T04:39:05.875Z,6.47
2022-08-05T04:41:37.701Z,3.08
2022-08-05T04:44:08.862Z,4.72
2022-08-05T04:46:38.183Z,3.20
2022-08-05T04:49:05.921Z,3.42
2022-08-05T04:51:41.493Z,5.53
2022-08-05T04:54:10.380Z,4.72
2022-08-05T04:56:40.025Z,3.53
2022-08-05T04:59:22.226Z,7.03
2022-08-05T05:02:35.252Z,3.78
2022-08-05T05:04:43.877Z,3.35
2022-08-05T05:07:17.347Z,3.43
2022-08-05T05:09:45.179Z,3.17
2022-08-05T05:12:13.031Z,4.32
2022-08-05T05:14:49.573Z,5.20
2022-08-05T05:17:23.388Z,2.88
2022-08-05T05:19:54.305Z,3.40
2022-08-05T05:22:26.342Z,4.63
2022-08-05T05:24:57.669Z,3.70
2022-08-05T05:27:45.250Z,5.50
2022-08-05T05:30:30.927Z,4.70
2022-08-05T05:33:09.057Z,6.50
2022-08-05T05:35:45.011Z,3.83
2022-08-05T05:38:14.485Z,4.57
2022-08-05T05:40:50.047Z,5.78
2022-08-05T05:43:28.114Z,3.67
2022-08-05T05:46:15.687Z,4.00
2022-08-05T05:48:46.058Z,3.42
2022-08-05T05:51:20.739Z,6.05
2022-08-05T05:53:58.123Z,5.95
2022-08-05T05:56:32.634Z,4.55
2022-08-05T05:59:03.137Z,5.30
2022-08-05T06:01:37.057Z,5.70
2022-08-05T06:04:06.741Z,5.35
2022-08-05T06:06:34.974Z,4.65
2022-08-05T06:09:05.469Z,6.32
2022-08-05T06:11:33.319Z,5.78
2022-08-05T06:14:02.122Z,5.68
2022-08-05T06:16:33.026Z,6.75
2022-08-05T06:19:07.533Z,5.03
2022-08-05T06:21:38.730Z,7.47
2022-08-05T06:24:12.414Z,10.13
2022-08-05T06:26:51.770Z,8.68
2022-08-05T06:29:25.266Z,5.43
2022-08-05T06:32:24.921Z,4.72
2022-08-05T06:34:57.356Z,3.70
2022-08-05T06:37:58.177Z,5.18
2022-08-05T06:40:20.540Z,5.32
2022-08-05T06:42:51.924Z,7.03
2022-08-05T06:45:43.932Z,9.43
2022-08-05T06:48:37.148Z,8.70
2022-08-05T06:50:56.910Z,6.95
2022-08-05T06:53:28.663Z,9.18
2022-08-05T06:55:58.116Z,5.68
2022-08-05T06:58:35.104Z,4.65
2022-08-05T07:01:05.672Z,7.85
2022-08-05T07:03:34.032Z,9.30
2022-08-05T07:06:05.856Z,5.63
2022-08-05T07:08:42.850Z,5.10
2022-08-05T07:11:16.711Z,6.68
2022-08-05T07:14:30.153Z,6.13
2022-08-05T07:18:01.239Z,5.45
2022-08-05T07:20:34.057Z,4.43
2022-08-05T07:22:37.959Z,3.75
2022-08-05T07:25:22.182Z,4.82
2022-08-05T07:28:01.489Z,3.88
2022-08-05T07:30:34.692Z,3.17
2022-08-05T07:33:10.625Z,2.33
2022-08-05T07:36:02.889Z,2.78
2022-08-05T07:38:35.691Z,2.10
2022-08-05T07:42:09.069Z,2.08
2022-08-05T07:44:03.095Z,2.92
2022-08-05T07:46:33.759Z,2.97
2022-08-05T07:49:05.755Z,2.83
2022-08-05T07:51:36.868Z,2.57
2022-08-05T07:54:06.211Z,2.70
2022-08-05T07:56:59.791Z,2.33
2022-08-05T07:59:37.996Z,2.97
2022-08-05T08:02:16.041Z,1.83
2022-08-05T08:04:46.170Z,2.47
2022-08-05T08:07:13.909Z,2.50
2022-08-05T08:09:42.781Z,3.00
2022-08-05T08:12:30.578Z,1.85
2022-08-05T08:15:02.079Z,4.45
2022-08-05T08:17:30.851Z,3.40
2022-08-05T08:20:44.656Z,2.92
2022-08-05T08:22:51.856Z,3.85
2022-08-05T08:25:35.875Z,3.45
2022-08-05T08:28:11.373Z,1.77
2022-08-05T08:30:49.818Z,2.30
2022-08-05T08:33:19.814Z,3.15
2022-08-05T08:35:53.930Z,1.98
2022-08-05T08:38:37.612Z,1.90
2022-08-05T08:41:08.283Z,1.90
2022-08-05T08:45:17.974Z,6.85
2022-08-05T08:46:28.933Z,2.30
2022-08-05T08:49:06.345Z,4.10
2022-08-05T08:52:03.390Z,3.78
2022-08-05T08:54:36.311Z,1.75
2022-08-05T08:57:11.314Z,2.10
2022-08-05T08:59:41.854Z,1.60
2022-08-05T09:02:18.947Z,3.35
2022-08-05T09:04:57.808Z,1.90
2022-08-05T09:07:40.083Z,1.40
2022-08-05T09:10:27.131Z,3.20
2022-08-05T09:12:56.755Z,1.95
2022-08-05T09:15:27.614Z,2.38
2022-08-05T09:17:59.516Z,4.50
2022-08-05T09:20:37.345Z,2.55
2022-08-05T09:23:09.605Z,4.68
2022-08-05T09:26:02.277Z,2.03
2022-08-05T09:28:31.935Z,1.77
2022-08-05T09:31:18.123Z,1.25
2022-08-05T09:33:56.267Z,1.98
2022-08-05T09:36:27.608Z,2.75
2022-08-05T09:39:03.363Z,2.33
2022-08-05T09:41:58.943Z,1.50
2022-08-05T09:44:37.826Z,2.53
2022-08-05T09:47:13.932Z,2.20
2022-08-05T09:50:00.736Z,1.20
2022-08-05T09:52:31.429Z,3.38
2022-08-05T09:55:55.249Z,2.78
2022-08-05T09:57:49.307Z,2.95
2022-08-05T10:00:24.625Z,3.58
2022-08-05T10:02:54.645Z,1.92
2022-08-05T10:05:26.670Z,2.58
2022-08-05T10:08:35.081Z,1.87
2022-08-05T10:10:53.868Z,1.48
2022-08-05T10:13:31.688Z,1.90
2022-08-05T10:16:30.829Z,2.70
2022-08-05T10:19:00.299Z,1.42
2022-08-05T10:21:35.365Z,1.85
2022-08-05T10:24:10.603Z,5.18
2022-08-05T10:26:51.267Z,2.05
2022-08-05T10:29:23.405Z,2.95
2022-08-05T10:32:54.910Z,3.70
2022-08-05T10:34:40.764Z,2.08
2022-08-05T10:37:12.700Z,2.40
2022-08-05T10:39:59.386Z,1.90
2022-08-05T10:42:38.270Z,2.03
2022-08-05T10:45:23.474Z,2.67
2022-08-05T10:48:30.201Z,2.65
2022-08-05T10:50:59.272Z,1.45
2022-08-05T10:53:45.325Z,1.20
2022-08-05T10:56:21.135Z,4.15
2022-08-05T10:59:07.129Z,1.55
2022-08-05T11:01:55.662Z,1.95
2022-08-05T11:04:30.878Z,2.75
2022-08-05T11:07:08.815Z,2.67
2022-08-05T11:09:46.237Z,3.25
2022-08-05T11:12:45.403Z,4.55
2022-08-05T11:15:21.435Z,3.63
2022-08-05T11:17:59.689Z,2.13
2022-08-05T11:20:39.104Z,2.23
2022-08-05T11:23:33.401Z,1.85
2022-08-05T11:26:31.915Z,3.65
2022-08-05T11:29:11.646Z,2.13
2022-08-05T11:31:57.201Z,1.52
2022-08-05T11:34:39.328Z,1.77
2022-08-05T11:38:26.797Z,1.77
2022-08-05T11:40:02.873Z,1.35
2022-08-05T11:42:40.232Z,1.63
2022-08-05T11:45:23.217Z,1.55
2022-08-05T11:47:58.607Z,2.03
2022-08-05T11:50:26.925Z,1.30
2022-08-05T11:52:57.918Z,2.65
2022-08-05T11:55:31.786Z,2.03
2022-08-05T11:58:10.454Z,2.05
2022-08-05T12:00:41.355Z,2.42
2022-08-05T12:03:28.548Z,5.20
2022-08-05T12:06:01.008Z,1.48
2022-08-05T12:08:28.720Z,1.35
2022-08-05T12:11:05.564Z,2.28
2022-08-05T12:13:48.470Z,1.75
2022-08-05T12:16:19.871Z,1.30
2022-08-05T12:18:53.800Z,2.42
2022-08-05T12:21:24.447Z,1.80
2022-08-05T12:23:58.326Z,3.95
2022-08-05T12:26:32.024Z,1.45
2022-08-05T12:29:01.487Z,1.73
2022-08-05T12:31:41.503Z,2.53
2022-08-05T12:36:49.455Z,1.63
2022-08-05T12:39:17.612Z,1.70
2022-08-05T12:41:46.690Z,6.53
2022-08-05T12:44:28.583Z,5.05
2022-08-05T12:47:01.636Z,3.55
2022-08-05T12:50:03.594Z,2.08
2022-08-05T12:52:35.411Z,2.00
2022-08-05T12:55:25.063Z,3.75
2022-08-05T12:58:50.461Z,2.28
2022-08-05T13:02:02.062Z,2.33
2022-08-05T13:06:16.118Z,1.30
2022-08-05T13:08:51.454Z,1.55
2022-08-05T13:11:59.982Z,1.85
2022-08-05T13:14:24.827Z,2.05
2022-08-05T13:17:10.781Z,1.30
2022-08-05T13:19:51.857Z,2.25
2022-08-05T13:22:29.541Z,2.17
2022-08-05T13:25:00.619Z,1.85
2022-08-05T13:27:38.416Z,2.50
2022-08-05T13:30:35.731Z,2.08
2022-08-05T13:33:01.518Z,1.85
2022-08-05T13:35:42.898Z,1.92
2022-08-05T13:38:20.238Z,1.67
2022-08-05T13:40:57.902Z,2.55
2022-08-05T13:43:44.791Z,1.95
2022-08-05T13:46:30.852Z,3.67
2022-08-05T13:49:10.477Z,2.92
2022-08-05T13:51:41.550Z,4.28
2022-08-05T13:54:15.469Z,2.60
2022-08-05T13:56:45.597Z,3.28
2022-08-05T13:59:21.077Z,2.42
2022-08-05T14:01:56.908Z,1.90
2022-08-05T14:04:50.172Z,2.90
2022-08-05T14:07:56.871Z,2.40
2022-08-05T14:10:09.035Z,2.10
2022-08-05T14:12:36.807Z,3.60
2022-08-05T14:16:03.901Z,4.95
2022-08-05T14:17:54.882Z,2.47
2022-08-05T14:20:27.619Z,3.58
2022-08-05T14:22:55.901Z,3.25
2022-08-05T14:25:28.392Z,3.00
2022-08-05T14:27:56.648Z,2.47
2022-08-05T14:30:27.790Z,4.00
2022-08-05T14:32:56.864Z,3.30
2022-08-05T14:35:36.999Z,4.53
2022-08-05T14:38:33.212Z,3.60
2022-08-05T14:40:59.059Z,4.78
2022-08-05T14:44:00.122Z,2.55
2022-08-05T14:46:14.377Z,2.72
2022-08-05T14:48:42.257Z,3.85
2022-08-05T14:51:11.420Z,3.40
2022-08-05T14:53:44.450Z,3.72
2022-08-05T14:56:13.455Z,2.88
2022-08-05T14:58:47.696Z,2.65
2022-08-05T15:01:48.414Z,3.10
2022-08-05T15:04:09.873Z,3.33
2022-08-05T15:06:40.820Z,4.30
2022-08-05T15:09:08.477Z,2.92
2022-08-05T15:11:52.027Z,3.03
2022-08-05T15:14:34.525Z,3.10
2022-08-05T15:17:46.124Z,3.80
2022-08-05T15:19:57.644Z,3.60
2022-08-05T15:22:28.231Z,2.75
2022-08-05T15:24:56.687Z,2.40
2022-08-05T15:27:25.707Z,3.13
2022-08-05T15:29:54.214Z,2.58
2022-08-05T15:32:28.633Z,2.63
2022-08-05T15:34:56.797Z,3.07
2022-08-05T15:38:34.666Z,4.00
2022-08-05T15:41:00.500Z,3.20
2022-08-05T15:43:09.181Z,3.83
2022-08-05T15:45:44.382Z,4.05
2022-08-05T15:48:14.786Z,3.08
2022-08-05T15:50:43.689Z,2.35
2022-08-05T15:53:14.893Z,1.92
2022-08-05T15:56:02.396Z,3.60
2022-08-05T15:58:35.387Z,4.70
2022-08-05T16:03:48.170Z,1.80
2022-08-05T16:06:20.222Z,4.30
2022-08-05T16:08:53.684Z,2.72
2022-08-05T16:11:42.459Z,2.70
2022-08-05T16:14:10.782Z,1.70
2022-08-05T16:16:45.996Z,2.60
2022-08-05T16:19:18.815Z,3.05
2022-08-05T16:22:00.182Z,2.05
2022-08-05T16:24:40.502Z,2.42
2022-08-05T16:27:10.059Z,4.50
2022-08-05T16:29:50.097Z,2.42
2022-08-05T16:32:23.386Z,1.73
2022-08-05T16:34:56.784Z,5.00
2022-08-05T16:38:15.980Z,2.15
2022-08-05T16:40:26.551Z,3.08
2022-08-05T16:42:57.102Z,3.10
2022-08-05T16:46:07.691Z,4.28
2022-08-05T16:48:25.743Z,5.47
2022-08-05T16:51:00.167Z,11.02
2022-08-05T16:54:03.407Z,5.85
2022-08-05T16:56:16.793Z,4.97
2022-08-05T16:58:45.004Z,6.20
2022-08-05T17:01:13.395Z,7.05
2022-08-05T17:03:41.441Z,6.20
2022-08-05T17:06:09.319Z,5.50
2022-08-05T17:08:52.003Z,8.75
2022-08-05T17:11:25.299Z,6.65
2022-08-05T17:14:00.647Z,7.63
2022-08-05T17:16:36.490Z,7.35
2022-08-05T17:19:07.373Z,9.00
2022-08-05T17:21:39.724Z,5.70
2022-08-05T17:24:19.648Z,5.72
2022-08-05T17:26:58.547Z,6.38
2022-08-05T17:29:33.587Z,8.82
2022-08-05T17:32:08.499Z,7.35
2022-08-05T17:34:39.324Z,7.03
2022-08-05T17:37:40.743Z,6.18
2022-08-05T17:39:55.843Z,6.60
2022-08-05T17:42:30.195Z,5.90
2022-08-05T17:45:00.293Z,5.63
2022-08-05T17:47:49.939Z,5.85
2022-08-05T17:50:27.687Z,5.90
2022-08-05T17:52:58.680Z,6.07
2022-08-05T17:55:27.411Z,6.88
2022-08-05T17:58:09.744Z,8.95
2022-08-05T18:00:40.748Z,5.90
2022-08-05T18:03:20.619Z,7.30
2022-08-05T18:05:56.035Z,7.60
2022-08-05T18:08:29.582Z,6.03
2022-08-05T18:10:57.907Z,6.90
2022-08-05T18:13:26.859Z,7.63
2022-08-05T18:16:04.939Z,7.05
2022-08-05T18:18:33.606Z,8.50
2022-08-05T18:21:13.072Z,8.85
2022-08-05T18:23:47.414Z,9.15
2022-08-05T18:26:18.761Z,10.75
2022-08-05T18:28:47.892Z,10.63
2022-08-05T18:31:15.682Z,11.82
2022-08-05T18:33:47.305Z,12.75
2022-08-05T18:36:19.461Z,10.23
2022-08-05T18:38:47.526Z,10.73
2022-08-05T18:41:57.878Z,10.45
2022-08-05T18:44:05.498Z,12.90
2022-08-05T18:46:34.400Z,9.63
2022-08-05T18:49:23.880Z,13.75
2022-08-05T18:52:12.425Z,10.63
2022-08-05T18:54:41.456Z,11.60
2022-08-05T18:57:15.448Z,9.60
2022-08-05T19:00:02.566Z,10.77
2022-08-05T19:02:31.877Z,9.57
2022-08-05T19:06:05.652Z,10.13
2022-08-05T19:07:49.846Z,8.82
2022-08-05T19:10:18.361Z,8.25
2022-08-05T19:12:54.504Z,8.80
2022-08-05T19:15:57.676Z,8.73
2022-08-05T19:18:13.690Z,8.15
2022-08-05T19:20:51.486Z,7.68
2022-08-05T19:23:22.403Z,8.40
2022-08-05T19:26:09.322Z,7.03
2022-08-05T19:28:41.537Z,6.03
2022-08-05T19:31:13.489Z,6.25
2022-08-05T19:33:48.585Z,8.75
2022-08-05T19:36:23.997Z,7.63
2022-08-05T19:38:52.111Z,7.43
2022-08-05T19:41:22.110Z,7.68
2022-08-05T19:44:13.005Z,5.60
2022-08-05T19:46:43.810Z,7.88
2022-08-05T19:49:12.482Z,6.35
2022-08-05T19:54:34.087Z,5.93
2022-08-05T19:57:06.599Z,6.35
2022-08-05T19:59:55.859Z,5.88
2022-08-05T20:02:27.795Z,5.38
2022-08-05T20:04:58.733Z,4.93
2022-08-05T20:07:47.363Z,5.03
2022-08-05T20:10:15.397Z,5.63
2022-08-05T20:12:47.686Z,5.38
2022-08-05T20:18:10.368Z,4.53
2022-08-05T20:20:56.172Z,4.38
2022-08-05T20:23:38.830Z,5.72
2022-08-05T20:26:16.378Z,4.28
2022-08-05T20:28:47.817Z,5.78
2022-08-05T20:31:16.482Z,6.70
2022-08-05T20:33:45.973Z,4.40
2022-08-05T20:36:16.417Z,5.07
2022-08-05T20:38:54.315Z,4.07
2022-08-05T20:41:27.455Z,7.05
2022-08-05T20:44:29.061Z,4.53
2022-08-05T20:46:59.877Z,3.85
2022-08-05T20:49:29.074Z,5.57
2022-08-05T20:51:58.137Z,2.83
2022-08-05T20:54:55.028Z,3.72
2022-08-05T20:57:14.769Z,3.17
2022-08-05T21:00:19.688Z,2.25
2022-08-05T21:02:48.850Z,2.47
2022-08-05T21:05:22.100Z,2.88
2022-08-05T21:07:51.767Z,2.15
2022-08-05T21:10:20.278Z,2.50
2022-08-05T21:12:57.961Z,1.73
2022-08-05T21:15:36.760Z,1.50
2022-08-05T21:18:04.996Z,2.40
2022-08-05T21:20:34.332Z,2.15
2022-08-05T21:23:03.053Z,1.60
2022-08-05T21:25:33.962Z,1.38
2022-08-05T21:28:02.916Z,2.15
2022-08-05T21:30:31.301Z,1.77
2022-08-05T21:32:59.692Z,1.88
2022-08-05T21:35:55.444Z,2.20
2022-08-05T21:38:19.900Z,1.85
2022-08-05T21:40:47.566Z,1.73
2022-08-05T21:43:24.153Z,1.48
2022-08-05T21:45:57.987Z,1.35
2022-08-05T21:48:28.485Z,2.28
2022-08-05T21:50:56.165Z,2.03
2022-08-05T21:53:27.551Z,2.70
2022-08-05T21:56:05.055Z,5.45
2022-08-05T21:58:34.306Z,1.02
2022-08-05T22:01:05.492Z,0.82
2022-08-05T22:03:52.793Z,1.63
2022-08-05T22:06:34.696Z,1.48
2022-08-05T22:09:13.063Z,3.05
2022-08-05T22:11:43.458Z,1.38
2022-08-05T22:14:33.375Z,3.20
2022-08-05T22:17:03.932Z,2.08
2022-08-05T22:20:01.317Z,2.22
2022-08-05T22:22:27.798Z,1.67
2022-08-05T22:25:21.716Z,1.40
2022-08-05T22:28:09.029Z,1.00
2022-08-05T22:30:44.264Z,1.45
2022-08-05T22:33:55.534Z,1.13
2022-08-05T22:36:10.909Z,1.33
2022-08-05T22:38:42.765Z,2.38
2022-08-05T22:41:12.029Z,2.42
2022-08-05T22:43:42.762Z,3.88
2022-08-05T22:46:11.996Z,2.83
2022-08-05T22:48:41.141Z,1.63
2022-08-05T22:51:15.994Z,2.55
2022-08-05T22:53:51.267Z,2.33
2022-08-05T22:56:30.010Z,2.35
2022-08-05T22:59:00.044Z,1.63
2022-08-05T23:02:04.293Z,1.52
2022-08-05T23:04:18.659Z,2.72
2022-08-05T23:06:47.744Z,2.35
2022-08-05T23:09:27.647Z,2.88
2022-08-05T23:12:05.545Z,1.80
2022-08-05T23:14:33.701Z,2.58
2022-08-05T23:17:23.954Z,1.30
2022-08-05T23:19:56.087Z,3.03
2022-08-05T23:22:27.306Z,2.35
2022-08-05T23:24:55.702Z,3.85
2022-08-05T23:27:28.868Z,2.28
2022-08-05T23:30:00.744Z,1.67
2022-08-05T23:32:28.816Z,1.60
2022-08-05T23:34:56.805Z,1.83
2022-08-05T23:37:24.561Z,1.98
2022-08-05T23:39:55.040Z,1.88
2022-08-05T23:42:29.534Z,1.98
2022-08-05T23:44:57.409Z,1.50
2022-08-05T23:47:25.430Z,2.25
2022-08-05T23:49:57.077Z,1.50
2022-08-05T23:52:29.256Z,1.00
2022-08-05T23:55:02.015Z,2.42
2022-08-05T23:57:35.238Z,2.03
